Aviation Digital Data Service (ADDS)

Output produced by METARs form (2255 UTC 20 January 2019)
found at http://www.aviationweather.gov/metar/data/
 
Forecast for: VAAH (AHMADABAD , IN)
Text: TAF VAAH 202000Z 2021/2106 00000KT 4000 FU NSC
Forecast period: 2100 UTC 20 January 2019 to 0100 UTC 21 January 2019
Forecast type: FROM: standard forecast or significant change
Winds: calm
Visibility: 2.49 miles (4.01 km)
Ceiling: unknown
Clouds: missing
Weather: FU  (smoke)
Text: BECMG 2101/2103 25003KT 1500 HZ FU
Forecast period: 0100 to 0400 UTC 21 January 2019
Forecast type: BECOMING: Conditions expected to become as follows by 0300 UTC 21 January 2019
Winds: from the WSW (250 degrees) at 3 MPH (3 knots; 1.5 m/s)
Visibility: 0.93 miles (1.50 km)
Ceiling: unknown
Clouds: missing
Weather: HZ FU  (haze, smoke)
Text: BECMG 2104/2106 25006KT 4000 FU
Forecast period: 0400 to 0600 UTC 21 January 2019
Forecast type: BECOMING: Conditions expected to become as follows by 0600 UTC 21 January 2019
Winds: from the WSW (250 degrees) at 7 MPH (6 knots; 3.1 m/s)
Visibility: 2.49 miles (4.01 km)
Ceiling: unknown
Clouds: missing
Weather: FU  (smoke)